sensor_id;sensor_type;location;lat;lon;timestamp;temperature;humidity
53675;DHT22;39574;50.534;8.500;2022-09-09T00:09:10;16.9;99.9
53675;DHT22;39574;50.534;8.500;2022-09-09T00:18:47;16.8;99.9
53675;DHT22;39574;50.534;8.500;2022-09-09T00:24:08;16.8;99.9
53675;DHT22;39574;50.534;8.500;2022-09-09T00:33:53;17.1;99.9
53675;DHT22;39574;50.534;8.500;2022-09-09T00:39:15;17.3;99.9
53675;DHT22;39574;50.534;8.500;2022-09-09T00:44:19;17.4;99.9
53675;DHT22;39574;50.534;8.500;2022-09-09T00:49:30;17.4;99.9
53675;DHT22;39574;50.534;8.500;2022-09-09T00:54:35;17.4;99.9
53675;DHT22;39574;50.534;8.500;2022-09-09T00:59:32;17.3;99.9
53675;DHT22;39574;50.534;8.500;2022-09-09T01:09:11;17.1;99.9
53675;DHT22;39574;50.534;8.500;2022-09-09T01:14:13;17.0;99.9
53675;DHT22;39574;50.534;8.500;2022-09-09T01:19:24;16.9;99.9
53675;DHT22;39574;50.534;8.500;2022-09-09T01:28:46;16.8;99.9
53675;DHT22;39574;50.534;8.500;2022-09-09T01:33:53;16.8;99.9
53675;DHT22;39574;50.534;8.500;2022-09-09T01:39:06;16.8;99.9
53675;DHT22;39574;50.534;8.500;2022-09-09T01:44:08;16.8;99.9
53675;DHT22;39574;50.534;8.500;2022-09-09T01:49:18;16.9;99.9
53675;DHT22;39574;50.534;8.500;2022-09-09T01:54:31;16.9;99.9
53675;DHT22;39574;50.534;8.500;2022-09-09T02:03:40;17.0;99.9
53675;DHT22;39574;50.534;8.500;2022-09-09T02:08:55;17.1;99.9
53675;DHT22;39574;50.534;8.500;2022-09-09T02:14:04;17.1;99.9
53675;DHT22;39574;50.534;8.500;2022-09-09T02:19:13;17.2;99.9
53675;DHT22;39574;50.534;8.500;2022-09-09T02:24:14;17.1;99.9
53675;DHT22;39574;50.534;8.500;2022-09-09T02:33:44;17.1;99.9
53675;DHT22;39574;50.534;8.500;2022-09-09T02:38:56;17.2;99.9
53675;DHT22;39574;50.534;8.500;2022-09-09T02:43:56;17.2;99.9
53675;DHT22;39574;50.534;8.500;2022-09-09T02:48:59;17.2;99.9
53675;DHT22;39574;50.534;8.500;2022-09-09T02:54:10;17.2;99.9
53675;DHT22;39574;50.534;8.500;2022-09-09T02:59:13;17.2;99.9
53675;DHT22;39574;50.534;8.500;2022-09-09T03:08:39;17.3;99.9
53675;DHT22;39574;50.534;8.500;2022-09-09T03:13:49;17.3;99.9
53675;DHT22;39574;50.534;8.500;2022-09-09T03:18:53;17.3;99.9
53675;DHT22;39574;50.534;8.500;2022-09-09T03:24:04;17.4;99.9
53675;DHT22;39574;50.534;8.500;2022-09-09T03:29:08;17.4;99.9
53675;DHT22;39574;50.534;8.500;2022-09-09T03:38:34;17.6;99.9
53675;DHT22;39574;50.534;8.500;2022-09-09T03:43:45;17.6;99.9
53675;DHT22;39574;50.534;8.500;2022-09-09T03:48:59;17.6;99.9
53675;DHT22;39574;50.534;8.500;2022-09-09T03:54:00;17.6;99.9
53675;DHT22;39574;50.534;8.500;2022-09-09T04:03:31;17.5;99.9
53675;DHT22;39574;50.534;8.500;2022-09-09T04:08:43;17.4;99.9
53675;DHT22;39574;50.534;8.500;2022-09-09T04:13:44;17.4;99.9
53675;DHT22;39574;50.534;8.500;2022-09-09T04:18:55;17.3;99.9
53675;DHT22;39574;50.534;8.500;2022-09-09T04:28:20;17.2;99.9
53675;DHT22;39574;50.534;8.500;2022-09-09T04:33:27;17.2;99.9
53675;DHT22;39574;50.534;8.500;2022-09-09T04:38:29;17.2;99.9
53675;DHT22;39574;50.534;8.500;2022-09-09T04:43:37;17.1;99.9
53675;DHT22;39574;50.534;8.500;2022-09-09T04:48:52;17.1;99.9
53675;DHT22;39574;50.534;8.500;2022-09-09T04:53:54;17.1;99.9
53675;DHT22;39574;50.534;8.500;2022-09-09T04:58:54;17.0;99.9
53675;DHT22;39574;50.534;8.500;2022-09-09T05:08:13;17.0;99.9
53675;DHT22;39574;50.534;8.500;2022-09-09T05:13:21;17.0;99.9
53675;DHT22;39574;50.534;8.500;2022-09-09T05:18:22;17.1;99.9
53675;DHT22;39574;50.534;8.500;2022-09-09T05:23:31;17.1;99.9
53675;DHT22;39574;50.534;8.500;2022-09-09T05:28:35;17.1;99.9
53675;DHT22;39574;50.534;8.500;2022-09-09T05:33:45;17.1;99.9
53675;DHT22;39574;50.534;8.500;2022-09-09T05:38:49;17.1;99.9
53675;DHT22;39574;50.534;8.500;2022-09-09T05:48:16;17.1;99.9
53675;DHT22;39574;50.534;8.500;2022-09-09T05:53:28;17.1;99.9
53675;DHT22;39574;50.534;8.500;2022-09-09T05:58:33;17.1;99.9
53675;DHT22;39574;50.534;8.500;2022-09-09T06:03:40;17.1;99.9
53675;DHT22;39574;50.534;8.500;2022-09-09T06:08:45;17.2;99.9
53675;DHT22;39574;50.534;8.500;2022-09-09T06:18:12;17.3;99.9
53675;DHT22;39574;50.534;8.500;2022-09-09T06:23:23;17.4;99.9
53675;DHT22;39574;50.534;8.500;2022-09-09T06:28:24;17.5;99.9
53675;DHT22;39574;50.534;8.500;2022-09-09T06:33:25;17.6;99.9
53675;DHT22;39574;50.534;8.500;2022-09-09T06:38:25;17.7;99.9
53675;DHT22;39574;50.534;8.500;2022-09-09T06:43:36;17.8;99.9
53675;DHT22;39574;50.534;8.500;2022-09-09T06:53:18;17.9;99.9
53675;DHT22;39574;50.534;8.500;2022-09-09T06:58:22;18.0;99.9
53675;DHT22;39574;50.534;8.500;2022-09-09T07:03:36;18.1;99.9
53675;DHT22;39574;50.534;8.500;2022-09-09T07:08:38;18.1;99.9
53675;DHT22;39574;50.534;8.500;2022-09-09T07:18:04;18.1;99.9
53675;DHT22;39574;50.534;8.500;2022-09-09T07:23:14;18.1;99.9
53675;DHT22;39574;50.534;8.500;2022-09-09T07:28:19;18.2;99.9
53675;DHT22;39574;50.534;8.500;2022-09-09T07:33:30;18.3;99.9
53675;DHT22;39574;50.534;8.500;2022-09-09T07:43:11;18.4;99.9
53675;DHT22;39574;50.534;8.500;2022-09-09T07:48:14;18.7;99.9
53675;DHT22;39574;50.534;8.500;2022-09-09T07:53:26;18.9;99.9
53675;DHT22;39574;50.534;8.500;2022-09-09T07:58:31;19.0;99.9
53675;DHT22;39574;50.534;8.500;2022-09-09T08:07:57;18.9;99.9
53675;DHT22;39574;50.534;8.500;2022-09-09T08:13:09;19.1;99.9
53675;DHT22;39574;50.534;8.500;2022-09-09T08:18:11;19.0;99.9
53675;DHT22;39574;50.534;8.500;2022-09-09T08:23:22;19.2;99.9
53675;DHT22;39574;50.534;8.500;2022-09-09T08:32:54;19.3;99.9
53675;DHT22;39574;50.534;8.500;2022-09-09T08:38:05;19.4;99.9
53675;DHT22;39574;50.534;8.500;2022-09-09T08:43:09;19.7;99.9
53675;DHT22;39574;50.534;8.500;2022-09-09T08:48:29;20.1;99.9
53675;DHT22;39574;50.534;8.500;2022-09-09T08:57:33;20.4;99.9
53675;DHT22;39574;50.534;8.500;2022-09-09T09:02:53;20.6;99.9
53675;DHT22;39574;50.534;8.500;2022-09-09T09:08:06;20.7;99.9
53675;DHT22;39574;50.534;8.500;2022-09-09T09:13:07;20.8;99.9
53675;DHT22;39574;50.534;8.500;2022-09-09T09:18:20;20.7;99.9
53675;DHT22;39574;50.534;8.500;2022-09-09T09:27:49;21.1;99.9
53675;DHT22;39574;50.534;8.500;2022-09-09T09:33:08;21.1;99.9
53675;DHT22;39574;50.534;8.500;2022-09-09T09:38:15;21.3;99.9
53675;DHT22;39574;50.534;8.500;2022-09-09T09:43:20;21.4;99.9
53675;DHT22;39574;50.534;8.500;2022-09-09T09:52:37;21.4;99.9
53675;DHT22;39574;50.534;8.500;2022-09-09T09:57:42;21.3;99.9
53675;DHT22;39574;50.534;8.500;2022-09-09T10:02:47;20.8;99.9
53675;DHT22;39574;50.534;8.500;2022-09-09T10:08:03;20.2;99.9
53675;DHT22;39574;50.534;8.500;2022-09-09T10:12:59;19.7;99.9
53675;DHT22;39574;50.534;8.500;2022-09-09T10:18:17;19.4;99.9
53675;DHT22;39574;50.534;8.500;2022-09-09T10:27:44;19.1;99.9
53675;DHT22;39574;50.534;8.500;2022-09-09T10:32:54;18.8;99.9
53675;DHT22;39574;50.534;8.500;2022-09-09T10:38:03;18.7;99.9
53675;DHT22;39574;50.534;8.500;2022-09-09T10:43:13;18.6;99.9
53675;DHT22;39574;50.534;8.500;2022-09-09T10:52:40;18.7;99.9
53675;DHT22;39574;50.534;8.500;2022-09-09T10:57:39;19.3;99.9
53675;DHT22;39574;50.534;8.500;2022-09-09T11:02:39;20.3;99.9
53675;DHT22;39574;50.534;8.500;2022-09-09T11:07:49;21.0;99.9
53675;DHT22;39574;50.534;8.500;2022-09-09T11:12:53;21.7;99.9
53675;DHT22;39574;50.534;8.500;2022-09-09T11:17:54;22.2;99.9
53675;DHT22;39574;50.534;8.500;2022-09-09T11:22:55;22.5;99.9
53675;DHT22;39574;50.534;8.500;2022-09-09T11:28:10;22.7;99.9
53675;DHT22;39574;50.534;8.500;2022-09-09T11:33:14;22.6;99.9
53675;DHT22;39574;50.534;8.500;2022-09-09T11:42:33;22.1;99.9
53675;DHT22;39574;50.534;8.500;2022-09-09T11:47:35;21.7;99.9
53675;DHT22;39574;50.534;8.500;2022-09-09T11:52:48;21.3;99.9
53675;DHT22;39574;50.534;8.500;2022-09-09T11:57:48;21.1;99.9
53675;DHT22;39574;50.534;8.500;2022-09-09T12:03:03;21.1;99.9
53675;DHT22;39574;50.534;8.500;2022-09-09T12:12:31;21.8;99.9
53675;DHT22;39574;50.534;8.500;2022-09-09T12:17:44;22.7;99.9
53675;DHT22;39574;50.534;8.500;2022-09-09T12:23:02;22.9;99.9
53675;DHT22;39574;50.534;8.500;2022-09-09T12:28:00;22.9;99.9
53675;DHT22;39574;50.534;8.500;2022-09-09T12:33:07;22.7;99.9
53675;DHT22;39574;50.534;8.500;2022-09-09T12:42:40;22.2;99.9
53675;DHT22;39574;50.534;8.500;2022-09-09T12:47:41;21.9;99.9
53675;DHT22;39574;50.534;8.500;2022-09-09T12:52:45;21.7;99.9
53675;DHT22;39574;50.534;8.500;2022-09-09T12:57:54;21.6;99.9
53675;DHT22;39574;50.534;8.500;2022-09-09T13:02:57;21.9;99.9
53675;DHT22;39574;50.534;8.500;2022-09-09T13:12:25;21.5;99.9
53675;DHT22;39574;50.534;8.500;2022-09-09T13:17:38;21.0;99.9
53675;DHT22;39574;50.534;8.500;2022-09-09T13:22:38;20.7;99.9
53675;DHT22;39574;50.534;8.500;2022-09-09T13:27:54;20.4;99.9
53675;DHT22;39574;50.534;8.500;2022-09-09T13:37:28;19.2;99.9
53675;DHT22;39574;50.534;8.500;2022-09-09T13:42:39;18.9;99.9
53675;DHT22;39574;50.534;8.500;2022-09-09T13:47:39;19.3;99.9
53675;DHT22;39574;50.534;8.500;2022-09-09T13:52:52;20.1;99.9
53675;DHT22;39574;50.534;8.500;2022-09-09T14:02:20;21.5;99.9
53675;DHT22;39574;50.534;8.500;2022-09-09T14:07:30;22.5;99.9
53675;DHT22;39574;50.534;8.500;2022-09-09T14:12:31;23.1;99.9
53675;DHT22;39574;50.534;8.500;2022-09-09T14:17:45;23.4;99.9
53675;DHT22;39574;50.534;8.500;2022-09-09T14:22:47;23.3;99.9
53675;DHT22;39574;50.534;8.500;2022-09-09T14:32:17;23.4;99.9
53675;DHT22;39574;50.534;8.500;2022-09-09T14:37:29;23.3;99.9
53675;DHT22;39574;50.534;8.500;2022-09-09T14:42:44;22.9;99.9
53675;DHT22;39574;50.534;8.500;2022-09-09T14:51:58;22.2;99.9
53675;DHT22;39574;50.534;8.500;2022-09-09T14:57:16;21.2;99.9
53675;DHT22;39574;50.534;8.500;2022-09-09T15:02:27;20.5;99.9
53675;DHT22;39574;50.534;8.500;2022-09-09T15:07:31;20.1;99.9
53675;DHT22;39574;50.534;8.500;2022-09-09T15:12:44;19.7;99.9
53675;DHT22;39574;50.534;8.500;2022-09-09T15:22:13;19.5;99.9
53675;DHT22;39574;50.534;8.500;2022-09-09T15:27:24;19.3;99.9
53675;DHT22;39574;50.534;8.500;2022-09-09T15:32:24;19.2;99.9
53675;DHT22;39574;50.534;8.500;2022-09-09T15:37:38;19.1;99.9
53675;DHT22;39574;50.534;8.500;2022-09-09T15:42:41;19.1;99.9
53675;DHT22;39574;50.534;8.500;2022-09-09T15:52:10;18.9;99.9
53675;DHT22;39574;50.534;8.500;2022-09-09T15:57:20;18.6;99.9
53675;DHT22;39574;50.534;8.500;2022-09-09T16:02:22;18.4;99.9
53675;DHT22;39574;50.534;8.500;2022-09-09T16:07:24;18.3;99.9
53675;DHT22;39574;50.534;8.500;2022-09-09T16:12:35;18.2;99.9
53675;DHT22;39574;50.534;8.500;2022-09-09T16:17:37;18.2;99.9
53675;DHT22;39574;50.534;8.500;2022-09-09T16:26:45;18.2;99.9
53675;DHT22;39574;50.534;8.500;2022-09-09T16:32:16;17.9;99.9
53675;DHT22;39574;50.534;8.500;2022-09-09T16:37:18;17.7;99.9
53675;DHT22;39574;50.534;8.500;2022-09-09T16:42:30;17.5;99.9
53675;DHT22;39574;50.534;8.500;2022-09-09T16:52:13;17.4;99.9
53675;DHT22;39574;50.534;8.500;2022-09-09T16:57:17;17.5;99.9
53675;DHT22;39574;50.534;8.500;2022-09-09T17:02:28;17.6;99.9
53675;DHT22;39574;50.534;8.500;2022-09-09T17:11:59;17.7;99.9
53675;DHT22;39574;50.534;8.500;2022-09-09T17:17:10;17.8;99.9
53675;DHT22;39574;50.534;8.500;2022-09-09T17:22:45;17.9;99.9
53675;DHT22;39574;50.534;8.500;2022-09-09T17:31:38;18.0;99.9
53675;DHT22;39574;50.534;8.500;2022-09-09T17:37:08;17.9;99.9
53675;DHT22;39574;50.534;8.500;2022-09-09T17:42:10;17.7;99.9
53675;DHT22;39574;50.534;8.500;2022-09-09T17:47:21;17.4;99.9
53675;DHT22;39574;50.534;8.500;2022-09-09T17:52:27;17.2;99.9
53675;DHT22;39574;50.534;8.500;2022-09-09T18:01:35;17.0;99.9
53675;DHT22;39574;50.534;8.500;2022-09-09T18:06:52;16.9;99.9
53675;DHT22;39574;50.534;8.500;2022-09-09T18:12:03;16.8;99.9
53675;DHT22;39574;50.534;8.500;2022-09-09T18:17:06;16.7;99.9
53675;DHT22;39574;50.534;8.500;2022-09-09T18:22:16;16.7;99.9
53675;DHT22;39574;50.534;8.500;2022-09-09T18:27:18;16.6;99.9
53675;DHT22;39574;50.534;8.500;2022-09-09T18:32:19;16.5;99.9
53675;DHT22;39574;50.534;8.500;2022-09-09T18:41:40;16.4;99.9
53675;DHT22;39574;50.534;8.500;2022-09-09T18:46:58;16.4;99.9
53675;DHT22;39574;50.534;8.500;2022-09-09T18:52:04;16.4;99.9
53675;DHT22;39574;50.534;8.500;2022-09-09T18:57:14;16.5;99.9
53675;DHT22;39574;50.534;8.500;2022-09-09T19:02:14;16.7;99.9
53675;DHT22;39574;50.534;8.500;2022-09-09T19:12:13;16.8;99.9
53675;DHT22;39574;50.534;8.500;2022-09-09T19:17:13;16.9;99.9
53675;DHT22;39574;50.534;8.500;2022-09-09T19:26:34;16.8;99.9
53675;DHT22;39574;50.534;8.500;2022-09-09T19:31:37;16.8;99.9
53675;DHT22;39574;50.534;8.500;2022-09-09T19:36:37;16.9;99.9
53675;DHT22;39574;50.534;8.500;2022-09-09T19:41:50;16.9;99.9
53675;DHT22;39574;50.534;8.500;2022-09-09T19:46:56;16.8;99.9
53675;DHT22;39574;50.534;8.500;2022-09-09T19:52:08;16.7;99.9
53675;DHT22;39574;50.534;8.500;2022-09-09T20:01:37;16.6;99.9
53675;DHT22;39574;50.534;8.500;2022-09-09T20:06:37;16.5;99.9
53675;DHT22;39574;50.534;8.500;2022-09-09T20:11:47;16.6;99.9
53675;DHT22;39574;50.534;8.500;2022-09-09T20:16:46;16.6;99.9
53675;DHT22;39574;50.534;8.500;2022-09-09T20:26:44;16.7;99.9
53675;DHT22;39574;50.534;8.500;2022-09-09T20:31:45;16.8;99.9
53675;DHT22;39574;50.534;8.500;2022-09-09T20:36:46;16.7;99.9
53675;DHT22;39574;50.534;8.500;2022-09-09T20:41:59;16.7;99.9
53675;DHT22;39574;50.534;8.500;2022-09-09T20:47:03;16.6;99.9
53675;DHT22;39574;50.534;8.500;2022-09-09T20:56:12;16.6;99.9
53675;DHT22;39574;50.534;8.500;2022-09-09T21:01:28;16.6;99.9
53675;DHT22;39574;50.534;8.500;2022-09-09T21:06:41;16.4;99.9
53675;DHT22;39574;50.534;8.500;2022-09-09T21:16:56;16.4;99.9
53675;DHT22;39574;50.534;8.500;2022-09-09T21:21:56;16.3;99.9
53675;DHT22;39574;50.534;8.500;2022-09-09T21:31:36;16.3;99.9
53675;DHT22;39574;50.534;8.500;2022-09-09T21:36:36;16.2;99.9
53675;DHT22;39574;50.534;8.500;2022-09-09T21:41:51;16.1;99.9
53675;DHT22;39574;50.534;8.500;2022-09-09T21:51:36;16.0;99.9
53675;DHT22;39574;50.534;8.500;2022-09-09T21:56:39;16.1;99.9
53675;DHT22;39574;50.534;8.500;2022-09-09T22:01:51;16.1;99.9
53675;DHT22;39574;50.534;8.500;2022-09-09T22:06:52;16.2;99.9
53675;DHT22;39574;50.534;8.500;2022-09-09T22:16:18;16.1;99.9
53675;DHT22;39574;50.534;8.500;2022-09-09T22:21:19;16.0;99.9
53675;DHT22;39574;50.534;8.500;2022-09-09T22:26:33;15.9;99.9
53675;DHT22;39574;50.534;8.500;2022-09-09T22:31:44;15.8;99.9
53675;DHT22;39574;50.534;8.500;2022-09-09T22:36:46;15.8;99.9
53675;DHT22;39574;50.534;8.500;2022-09-09T22:46:25;15.8;99.9
53675;DHT22;39574;50.534;8.500;2022-09-09T22:51:25;15.8;99.9
53675;DHT22;39574;50.534;8.500;2022-09-09T22:56:28;15.9;99.9
53675;DHT22;39574;50.534;8.500;2022-09-09T23:01:40;15.8;99.9
53675;DHT22;39574;50.534;8.500;2022-09-09T23:06:42;15.8;99.9
53675;DHT22;39574;50.534;8.500;2022-09-09T23:11:43;15.8;99.9
53675;DHT22;39574;50.534;8.500;2022-09-09T23:21:20;15.8;99.9
53675;DHT22;39574;50.534;8.500;2022-09-09T23:26:20;15.9;99.9
53675;DHT22;39574;50.534;8.500;2022-09-09T23:31:25;15.9;99.9
53675;DHT22;39574;50.534;8.500;2022-09-09T23:36:38;15.9;99.9
53675;DHT22;39574;50.534;8.500;2022-09-09T23:46:16;15.9;99.9
53675;DHT22;39574;50.534;8.500;2022-09-09T23:51:18;15.8;99.9
53675;DHT22;39574;50.534;8.500;2022-09-09T23:56:29;15.7;99.9
